sensor_id;sensor_type;location;lat;lon;timestamp;P1;durP1;ratioP1;P2;durP2;ratioP2
26486;SDS011;14425;56.136;40.360;2023-08-20T00:00:31;7.32;;;5.65;;
26486;SDS011;14425;56.136;40.360;2023-08-20T00:03:10;14.27;;;5.78;;
26486;SDS011;14425;56.136;40.360;2023-08-20T00:05:37;9.15;;;5.57;;
26486;SDS011;14425;56.136;40.360;2023-08-20T00:08:04;6.35;;;5.65;;
26486;SDS011;14425;56.136;40.360;2023-08-20T00:10:29;9.98;;;5.53;;
26486;SDS011;14425;56.136;40.360;2023-08-20T00:12:56;10.68;;;5.88;;
26486;SDS011;14425;56.136;40.360;2023-08-20T00:15:22;8.73;;;5.78;;
26486;SDS011;14425;56.136;40.360;2023-08-20T00:17:52;5.55;;;5.03;;
26486;SDS011;14425;56.136;40.360;2023-08-20T00:20:18;7.50;;;5.82;;
26486;SDS011;14425;56.136;40.360;2023-08-20T00:22:45;6.88;;;5.10;;
26486;SDS011;14425;56.136;40.360;2023-08-20T00:25:15;7.10;;;5.35;;
26486;SDS011;14425;56.136;40.360;2023-08-20T00:27:42;6.93;;;5.25;;
26486;SDS011;14425;56.136;40.360;2023-08-20T00:30:08;6.53;;;5.22;;
26486;SDS011;14425;56.136;40.360;2023-08-20T00:32:35;6.47;;;5.60;;
26486;SDS011;14425;56.136;40.360;2023-08-20T00:35:02;6.68;;;5.40;;
26486;SDS011;14425;56.136;40.360;2023-08-20T00:37:30;7.40;;;5.65;;
26486;SDS011;14425;56.136;40.360;2023-08-20T00:39:56;6.68;;;5.28;;
26486;SDS011;14425;56.136;40.360;2023-08-20T00:42:23;8.85;;;5.53;;
26486;SDS011;14425;56.136;40.360;2023-08-20T00:44:51;7.82;;;5.00;;
26486;SDS011;14425;56.136;40.360;2023-08-20T00:47:17;7.13;;;5.18;;
26486;SDS011;14425;56.136;40.360;2023-08-20T00:49:43;5.93;;;5.40;;
26486;SDS011;14425;56.136;40.360;2023-08-20T00:52:09;12.38;;;5.47;;
26486;SDS011;14425;56.136;40.360;2023-08-20T00:54:39;7.65;;;5.95;;
26486;SDS011;14425;56.136;40.360;2023-08-20T00:57:05;16.92;;;5.38;;
26486;SDS011;14425;56.136;40.360;2023-08-20T00:59:32;9.48;;;5.10;;
26486;SDS011;14425;56.136;40.360;2023-08-20T01:01:59;12.65;;;5.03;;
26486;SDS011;14425;56.136;40.360;2023-08-20T01:04:25;9.70;;;5.43;;
26486;SDS011;14425;56.136;40.360;2023-08-20T01:12:26;11.50;;;5.57;;
26486;SDS011;14425;56.136;40.360;2023-08-20T01:14:54;8.70;;;4.90;;
26486;SDS011;14425;56.136;40.360;2023-08-20T01:17:19;8.77;;;6.15;;
26486;SDS011;14425;56.136;40.360;2023-08-20T01:19:45;7.95;;;5.45;;
26486;SDS011;14425;56.136;40.360;2023-08-20T01:30:17;5.90;;;5.32;;
26486;SDS011;14425;56.136;40.360;2023-08-20T01:32:46;7.30;;;6.03;;
26486;SDS011;14425;56.136;40.360;2023-08-20T01:35:18;13.18;;;5.90;;
26486;SDS011;14425;56.136;40.360;2023-08-20T01:37:44;9.68;;;5.63;;
26486;SDS011;14425;56.136;40.360;2023-08-20T01:40:10;8.82;;;5.28;;
26486;SDS011;14425;56.136;40.360;2023-08-20T01:42:39;8.13;;;5.38;;
26486;SDS011;14425;56.136;40.360;2023-08-20T01:45:06;7.78;;;5.13;;
26486;SDS011;14425;56.136;40.360;2023-08-20T01:47:33;10.05;;;5.72;;
26486;SDS011;14425;56.136;40.360;2023-08-20T01:49:59;8.20;;;6.00;;
26486;SDS011;14425;56.136;40.360;2023-08-20T01:52:25;12.23;;;6.20;;
26486;SDS011;14425;56.136;40.360;2023-08-20T01:54:51;11.77;;;5.70;;
26486;SDS011;14425;56.136;40.360;2023-08-20T01:57:18;6.80;;;5.78;;
26486;SDS011;14425;56.136;40.360;2023-08-20T01:59:43;5.88;;;5.30;;
26486;SDS011;14425;56.136;40.360;2023-08-20T02:02:09;9.48;;;5.95;;
26486;SDS011;14425;56.136;40.360;2023-08-20T02:04:34;9.18;;;5.25;;
26486;SDS011;14425;56.136;40.360;2023-08-20T02:07:00;6.63;;;5.93;;
26486;SDS011;14425;56.136;40.360;2023-08-20T02:09:25;8.68;;;5.60;;
26486;SDS011;14425;56.136;40.360;2023-08-20T02:11:51;9.43;;;5.90;;
26486;SDS011;14425;56.136;40.360;2023-08-20T02:14:17;6.25;;;5.43;;
26486;SDS011;14425;56.136;40.360;2023-08-20T02:16:43;11.75;;;6.40;;
26486;SDS011;14425;56.136;40.360;2023-08-20T02:19:13;9.52;;;6.20;;
26486;SDS011;14425;56.136;40.360;2023-08-20T02:21:39;7.28;;;5.65;;
26486;SDS011;14425;56.136;40.360;2023-08-20T02:24:05;9.88;;;5.72;;
26486;SDS011;14425;56.136;40.360;2023-08-20T02:26:32;8.50;;;5.82;;
26486;SDS011;14425;56.136;40.360;2023-08-20T02:28:57;7.93;;;5.63;;
26486;SDS011;14425;56.136;40.360;2023-08-20T02:31:23;10.35;;;5.57;;
26486;SDS011;14425;56.136;40.360;2023-08-20T02:33:49;6.15;;;5.50;;
26486;SDS011;14425;56.136;40.360;2023-08-20T02:36:15;9.25;;;5.60;;
26486;SDS011;14425;56.136;40.360;2023-08-20T02:38:40;9.50;;;6.28;;
26486;SDS011;14425;56.136;40.360;2023-08-20T02:41:06;8.60;;;6.20;;
26486;SDS011;14425;56.136;40.360;2023-08-20T02:43:31;8.32;;;5.35;;
26486;SDS011;14425;56.136;40.360;2023-08-20T02:45:57;9.55;;;5.60;;
26486;SDS011;14425;56.136;40.360;2023-08-20T02:48:23;7.38;;;5.80;;
26486;SDS011;14425;56.136;40.360;2023-08-20T02:50:53;6.00;;;5.47;;
26486;SDS011;14425;56.136;40.360;2023-08-20T02:53:19;11.48;;;6.07;;
26486;SDS011;14425;56.136;40.360;2023-08-20T02:55:45;10.60;;;6.20;;
26486;SDS011;14425;56.136;40.360;2023-08-20T02:58:11;10.25;;;6.50;;
26486;SDS011;14425;56.136;40.360;2023-08-20T03:00:37;11.95;;;6.95;;
26486;SDS011;14425;56.136;40.360;2023-08-20T03:03:03;17.17;;;7.40;;
26486;SDS011;14425;56.136;40.360;2023-08-20T03:05:31;15.63;;;8.18;;
26486;SDS011;14425;56.136;40.360;2023-08-20T03:07:57;15.68;;;8.20;;
26486;SDS011;14425;56.136;40.360;2023-08-20T03:10:23;13.93;;;8.35;;
26486;SDS011;14425;56.136;40.360;2023-08-20T03:12:49;16.58;;;8.63;;
26486;SDS011;14425;56.136;40.360;2023-08-20T03:15:14;18.83;;;8.68;;
26486;SDS011;14425;56.136;40.360;2023-08-20T03:17:40;16.30;;;8.73;;
26486;SDS011;14425;56.136;40.360;2023-08-20T03:20:06;11.85;;;7.50;;
26486;SDS011;14425;56.136;40.360;2023-08-20T03:22:32;14.23;;;8.45;;
26486;SDS011;14425;56.136;40.360;2023-08-20T03:24:58;13.32;;;7.47;;
26486;SDS011;14425;56.136;40.360;2023-08-20T03:27:24;15.25;;;7.47;;
26486;SDS011;14425;56.136;40.360;2023-08-20T03:29:49;15.68;;;8.25;;
26486;SDS011;14425;56.136;40.360;2023-08-20T03:32:17;15.73;;;8.07;;
26486;SDS011;14425;56.136;40.360;2023-08-20T03:34:43;11.57;;;7.75;;
26486;SDS011;14425;56.136;40.360;2023-08-20T03:37:08;8.43;;;6.65;;
26486;SDS011;14425;56.136;40.360;2023-08-20T03:39:34;15.52;;;10.23;;
26486;SDS011;14425;56.136;40.360;2023-08-20T03:42:00;12.05;;;6.75;;
26486;SDS011;14425;56.136;40.360;2023-08-20T03:44:25;10.50;;;7.10;;
26486;SDS011;14425;56.136;40.360;2023-08-20T03:46:51;11.32;;;7.50;;
26486;SDS011;14425;56.136;40.360;2023-08-20T03:49:17;11.57;;;8.15;;
26486;SDS011;14425;56.136;40.360;2023-08-20T03:51:42;13.80;;;7.75;;
26486;SDS011;14425;56.136;40.360;2023-08-20T03:54:11;13.20;;;8.00;;
26486;SDS011;14425;56.136;40.360;2023-08-20T03:56:36;12.85;;;6.78;;
26486;SDS011;14425;56.136;40.360;2023-08-20T03:59:02;15.45;;;8.02;;
26486;SDS011;14425;56.136;40.360;2023-08-20T04:01:28;17.17;;;7.78;;
26486;SDS011;14425;56.136;40.360;2023-08-20T04:03:53;11.70;;;7.95;;
26486;SDS011;14425;56.136;40.360;2023-08-20T04:06:19;10.52;;;6.95;;
26486;SDS011;14425;56.136;40.360;2023-08-20T04:08:44;10.27;;;8.32;;
26486;SDS011;14425;56.136;40.360;2023-08-20T04:11:10;11.18;;;8.45;;
26486;SDS011;14425;56.136;40.360;2023-08-20T04:13:36;12.02;;;6.55;;
26486;SDS011;14425;56.136;40.360;2023-08-20T04:16:02;11.18;;;8.13;;
26486;SDS011;14425;56.136;40.360;2023-08-20T04:18:27;11.88;;;8.82;;
26486;SDS011;14425;56.136;40.360;2023-08-20T04:20:53;10.43;;;8.18;;
26486;SDS011;14425;56.136;40.360;2023-08-20T04:23:19;10.32;;;8.05;;
26486;SDS011;14425;56.136;40.360;2023-08-20T04:25:45;10.10;;;8.20;;
26486;SDS011;14425;56.136;40.360;2023-08-20T04:28:14;11.40;;;8.60;;
26486;SDS011;14425;56.136;40.360;2023-08-20T04:30:40;17.58;;;8.75;;
26486;SDS011;14425;56.136;40.360;2023-08-20T04:33:05;20.98;;;9.65;;
26486;SDS011;14425;56.136;40.360;2023-08-20T04:35:31;15.27;;;9.35;;
26486;SDS011;14425;56.136;40.360;2023-08-20T04:37:57;16.95;;;9.35;;
26486;SDS011;14425;56.136;40.360;2023-08-20T04:40:23;10.68;;;9.05;;
26486;SDS011;14425;56.136;40.360;2023-08-20T04:42:49;10.52;;;8.23;;
26486;SDS011;14425;56.136;40.360;2023-08-20T04:45:14;12.80;;;8.90;;
26486;SDS011;14425;56.136;40.360;2023-08-20T04:47:43;10.48;;;8.40;;
26486;SDS011;14425;56.136;40.360;2023-08-20T04:50:09;9.80;;;8.80;;
26486;SDS011;14425;56.136;40.360;2023-08-20T04:52:34;10.82;;;8.77;;
26486;SDS011;14425;56.136;40.360;2023-08-20T04:55:00;19.60;;;9.82;;
26486;SDS011;14425;56.136;40.360;2023-08-20T04:57:27;9.38;;;8.38;;
26486;SDS011;14425;56.136;40.360;2023-08-20T04:59:53;10.48;;;9.38;;
26486;SDS011;14425;56.136;40.360;2023-08-20T05:02:18;13.18;;;9.75;;
26486;SDS011;14425;56.136;40.360;2023-08-20T05:04:44;9.75;;;8.57;;
26486;SDS011;14425;56.136;40.360;2023-08-20T05:07:10;12.20;;;8.68;;
26486;SDS011;14425;56.136;40.360;2023-08-20T05:09:36;11.25;;;9.90;;
26486;SDS011;14425;56.136;40.360;2023-08-20T05:12:02;10.18;;;9.15;;
26486;SDS011;14425;56.136;40.360;2023-08-20T05:14:28;10.95;;;9.35;;
26486;SDS011;14425;56.136;40.360;2023-08-20T05:16:55;13.07;;;9.35;;
26486;SDS011;14425;56.136;40.360;2023-08-20T05:19:21;12.20;;;9.75;;
26486;SDS011;14425;56.136;40.360;2023-08-20T05:21:47;11.55;;;9.38;;
26486;SDS011;14425;56.136;40.360;2023-08-20T05:24:12;11.73;;;9.35;;
26486;SDS011;14425;56.136;40.360;2023-08-20T05:26:38;13.45;;;10.07;;
26486;SDS011;14425;56.136;40.360;2023-08-20T05:29:04;11.75;;;9.13;;
26486;SDS011;14425;56.136;40.360;2023-08-20T05:31:30;11.90;;;9.13;;
26486;SDS011;14425;56.136;40.360;2023-08-20T05:33:55;15.20;;;9.75;;
26486;SDS011;14425;56.136;40.360;2023-08-20T05:36:21;10.98;;;9.05;;
26486;SDS011;14425;56.136;40.360;2023-08-20T05:38:48;12.02;;;9.75;;
26486;SDS011;14425;56.136;40.360;2023-08-20T05:41:13;12.45;;;9.00;;
26486;SDS011;14425;56.136;40.360;2023-08-20T05:43:39;11.60;;;9.82;;
26486;SDS011;14425;56.136;40.360;2023-08-20T05:46:04;12.55;;;9.90;;
26486;SDS011;14425;56.136;40.360;2023-08-20T05:48:30;12.27;;;9.27;;
26486;SDS011;14425;56.136;40.360;2023-08-20T05:50:55;12.45;;;9.32;;
26486;SDS011;14425;56.136;40.360;2023-08-20T05:53:22;14.13;;;9.55;;
26486;SDS011;14425;56.136;40.360;2023-08-20T05:55:47;7.82;;;6.55;;
26486;SDS011;14425;56.136;40.360;2023-08-20T05:58:13;12.63;;;8.32;;
26486;SDS011;14425;56.136;40.360;2023-08-20T06:00:39;20.25;;;10.70;;
26486;SDS011;14425;56.136;40.360;2023-08-20T06:03:05;17.60;;;7.80;;
26486;SDS011;14425;56.136;40.360;2023-08-20T06:05:32;26.42;;;10.50;;
26486;SDS011;14425;56.136;40.360;2023-08-20T06:08:01;27.60;;;9.35;;
26486;SDS011;14425;56.136;40.360;2023-08-20T06:10:27;20.63;;;7.80;;
26486;SDS011;14425;56.136;40.360;2023-08-20T06:12:53;21.38;;;7.90;;
26486;SDS011;14425;56.136;40.360;2023-08-20T06:15:18;25.52;;;7.90;;
26486;SDS011;14425;56.136;40.360;2023-08-20T06:17:44;22.80;;;7.85;;
26486;SDS011;14425;56.136;40.360;2023-08-20T06:20:10;20.13;;;9.02;;
26486;SDS011;14425;56.136;40.360;2023-08-20T06:22:39;18.75;;;9.30;;
26486;SDS011;14425;56.136;40.360;2023-08-20T06:25:05;14.27;;;8.10;;
26486;SDS011;14425;56.136;40.360;2023-08-20T06:27:31;14.90;;;7.82;;
26486;SDS011;14425;56.136;40.360;2023-08-20T06:29:57;11.55;;;7.03;;
26486;SDS011;14425;56.136;40.360;2023-08-20T06:32:23;9.30;;;7.30;;
26486;SDS011;14425;56.136;40.360;2023-08-20T06:34:49;8.63;;;6.45;;
26486;SDS011;14425;56.136;40.360;2023-08-20T06:37:15;9.90;;;6.50;;
26486;SDS011;14425;56.136;40.360;2023-08-20T06:39:41;7.20;;;5.63;;
26486;SDS011;14425;56.136;40.360;2023-08-20T06:42:06;6.63;;;5.60;;
26486;SDS011;14425;56.136;40.360;2023-08-20T06:44:32;11.77;;;7.35;;
26486;SDS011;14425;56.136;40.360;2023-08-20T06:47:00;7.07;;;5.95;;
26486;SDS011;14425;56.136;40.360;2023-08-20T06:49:26;7.03;;;6.30;;
26486;SDS011;14425;56.136;40.360;2023-08-20T06:51:54;6.93;;;6.00;;
26486;SDS011;14425;56.136;40.360;2023-08-20T06:54:23;7.20;;;5.22;;
26486;SDS011;14425;56.136;40.360;2023-08-20T06:56:49;6.18;;;5.57;;
26486;SDS011;14425;56.136;40.360;2023-08-20T06:59:14;8.80;;;6.07;;
26486;SDS011;14425;56.136;40.360;2023-08-20T07:01:41;7.68;;;5.55;;
26486;SDS011;14425;56.136;40.360;2023-08-20T07:04:07;7.63;;;6.30;;
26486;SDS011;14425;56.136;40.360;2023-08-20T07:06:32;10.40;;;6.32;;
26486;SDS011;14425;56.136;40.360;2023-08-20T07:08:59;9.90;;;6.18;;
26486;SDS011;14425;56.136;40.360;2023-08-20T07:11:24;11.15;;;6.45;;
26486;SDS011;14425;56.136;40.360;2023-08-20T07:13:50;9.80;;;5.43;;
26486;SDS011;14425;56.136;40.360;2023-08-20T07:16:15;6.50;;;5.90;;
26486;SDS011;14425;56.136;40.360;2023-08-20T07:18:41;7.22;;;5.97;;
26486;SDS011;14425;56.136;40.360;2023-08-20T07:21:07;6.20;;;5.60;;
26486;SDS011;14425;56.136;40.360;2023-08-20T07:23:33;7.43;;;6.32;;
26486;SDS011;14425;56.136;40.360;2023-08-20T07:26:05;8.10;;;5.45;;
26486;SDS011;14425;56.136;40.360;2023-08-20T07:28:35;7.20;;;5.82;;
26486;SDS011;14425;56.136;40.360;2023-08-20T07:31:19;8.30;;;6.43;;
26486;SDS011;14425;56.136;40.360;2023-08-20T07:33:47;9.13;;;6.57;;
26486;SDS011;14425;56.136;40.360;2023-08-20T07:36:14;7.03;;;5.80;;
26486;SDS011;14425;56.136;40.360;2023-08-20T07:38:43;7.43;;;6.10;;
26486;SDS011;14425;56.136;40.360;2023-08-20T07:41:09;7.82;;;6.53;;
26486;SDS011;14425;56.136;40.360;2023-08-20T07:43:39;6.85;;;5.65;;
26486;SDS011;14425;56.136;40.360;2023-08-20T07:46:06;7.43;;;6.32;;
26486;SDS011;14425;56.136;40.360;2023-08-20T07:48:33;7.53;;;6.22;;
26486;SDS011;14425;56.136;40.360;2023-08-20T07:50:59;5.93;;;5.25;;
26486;SDS011;14425;56.136;40.360;2023-08-20T07:53:25;8.18;;;6.35;;
26486;SDS011;14425;56.136;40.360;2023-08-20T07:55:50;8.00;;;5.80;;
26486;SDS011;14425;56.136;40.360;2023-08-20T07:58:16;7.95;;;6.28;;
26486;SDS011;14425;56.136;40.360;2023-08-20T08:00:42;8.27;;;6.40;;
26486;SDS011;14425;56.136;40.360;2023-08-20T08:03:08;8.43;;;6.68;;
26486;SDS011;14425;56.136;40.360;2023-08-20T08:05:35;8.25;;;6.82;;
26486;SDS011;14425;56.136;40.360;2023-08-20T08:08:01;6.72;;;5.85;;
26486;SDS011;14425;56.136;40.360;2023-08-20T08:10:27;9.88;;;7.25;;
26486;SDS011;14425;56.136;40.360;2023-08-20T08:12:56;10.77;;;8.00;;
26486;SDS011;14425;56.136;40.360;2023-08-20T08:15:21;9.52;;;6.57;;
26486;SDS011;14425;56.136;40.360;2023-08-20T08:17:47;7.10;;;6.40;;
26486;SDS011;14425;56.136;40.360;2023-08-20T08:20:13;8.63;;;6.13;;
26486;SDS011;14425;56.136;40.360;2023-08-20T08:22:39;7.15;;;6.43;;
26486;SDS011;14425;56.136;40.360;2023-08-20T08:25:05;7.53;;;6.82;;
26486;SDS011;14425;56.136;40.360;2023-08-20T08:27:30;8.82;;;6.13;;
26486;SDS011;14425;56.136;40.360;2023-08-20T08:29:56;8.68;;;6.90;;
26486;SDS011;14425;56.136;40.360;2023-08-20T08:32:21;9.98;;;6.72;;
26486;SDS011;14425;56.136;40.360;2023-08-20T08:34:47;7.82;;;6.40;;
26486;SDS011;14425;56.136;40.360;2023-08-20T08:37:16;7.20;;;6.13;;
26486;SDS011;14425;56.136;40.360;2023-08-20T08:39:41;9.68;;;7.88;;
26486;SDS011;14425;56.136;40.360;2023-08-20T08:42:07;10.15;;;7.70;;
26486;SDS011;14425;56.136;40.360;2023-08-20T08:44:36;9.65;;;6.85;;
26486;SDS011;14425;56.136;40.360;2023-08-20T08:47:02;7.45;;;6.75;;
26486;SDS011;14425;56.136;40.360;2023-08-20T08:49:30;23.23;;;8.40;;
26486;SDS011;14425;56.136;40.360;2023-08-20T08:51:58;12.82;;;7.60;;
26486;SDS011;14425;56.136;40.360;2023-08-20T08:54:24;17.00;;;7.95;;
26486;SDS011;14425;56.136;40.360;2023-08-20T08:56:50;12.35;;;6.60;;
26486;SDS011;14425;56.136;40.360;2023-08-20T08:59:16;7.70;;;6.00;;
26486;SDS011;14425;56.136;40.360;2023-08-20T09:01:41;7.47;;;5.85;;
26486;SDS011;14425;56.136;40.360;2023-08-20T09:04:07;10.25;;;6.70;;
26486;SDS011;14425;56.136;40.360;2023-08-20T09:10:26;10.00;;;6.68;;
26486;SDS011;14425;56.136;40.360;2023-08-20T09:12:55;8.43;;;6.80;;
26486;SDS011;14425;56.136;40.360;2023-08-20T09:15:29;12.05;;;6.82;;
26486;SDS011;14425;56.136;40.360;2023-08-20T09:17:57;9.60;;;7.60;;
26486;SDS011;14425;56.136;40.360;2023-08-20T09:20:33;12.05;;;6.55;;
26486;SDS011;14425;56.136;40.360;2023-08-20T09:22:59;8.15;;;6.45;;
26486;SDS011;14425;56.136;40.360;2023-08-20T09:25:25;10.75;;;7.97;;
26486;SDS011;14425;56.136;40.360;2023-08-20T09:27:51;7.70;;;6.35;;
26486;SDS011;14425;56.136;40.360;2023-08-20T09:30:19;6.93;;;6.25;;
26486;SDS011;14425;56.136;40.360;2023-08-20T09:35:33;14.13;;;7.95;;
26486;SDS011;14425;56.136;40.360;2023-08-20T09:37:59;9.55;;;7.28;;
26486;SDS011;14425;56.136;40.360;2023-08-20T09:40:26;9.32;;;6.97;;
26486;SDS011;14425;56.136;40.360;2023-08-20T09:42:53;8.45;;;7.05;;
26486;SDS011;14425;56.136;40.360;2023-08-20T09:45:20;9.00;;;8.20;;
26486;SDS011;14425;56.136;40.360;2023-08-20T09:47:47;11.50;;;8.27;;
26486;SDS011;14425;56.136;40.360;2023-08-20T09:50:14;9.77;;;8.60;;
26486;SDS011;14425;56.136;40.360;2023-08-20T09:52:46;10.63;;;8.35;;
26486;SDS011;14425;56.136;40.360;2023-08-20T09:55:21;12.40;;;6.43;;
26486;SDS011;14425;56.136;40.360;2023-08-20T09:57:47;7.25;;;6.55;;
26486;SDS011;14425;56.136;40.360;2023-08-20T10:00:13;10.07;;;7.78;;
26486;SDS011;14425;56.136;40.360;2023-08-20T10:02:41;40.53;;;10.60;;
26486;SDS011;14425;56.136;40.360;2023-08-20T10:05:08;15.55;;;9.55;;
26486;SDS011;14425;56.136;40.360;2023-08-20T10:07:35;11.57;;;10.15;;
26486;SDS011;14425;56.136;40.360;2023-08-20T10:10:02;11.07;;;8.65;;
26486;SDS011;14425;56.136;40.360;2023-08-20T10:12:31;12.10;;;6.80;;
26486;SDS011;14425;56.136;40.360;2023-08-20T10:15:01;11.00;;;9.82;;
26486;SDS011;14425;56.136;40.360;2023-08-20T10:17:31;10.43;;;8.52;;
26486;SDS011;14425;56.136;40.360;2023-08-20T10:19:58;10.55;;;9.27;;
26486;SDS011;14425;56.136;40.360;2023-08-20T10:22:37;10.43;;;7.28;;
26486;SDS011;14425;56.136;40.360;2023-08-20T10:25:10;7.35;;;6.65;;
26486;SDS011;14425;56.136;40.360;2023-08-20T10:27:40;11.93;;;10.73;;
26486;SDS011;14425;56.136;40.360;2023-08-20T10:30:10;11.90;;;10.68;;
26486;SDS011;14425;56.136;40.360;2023-08-20T10:32:45;13.00;;;10.20;;
26486;SDS011;14425;56.136;40.360;2023-08-20T10:35:15;10.77;;;8.35;;
26486;SDS011;14425;56.136;40.360;2023-08-20T10:38:24;15.38;;;10.55;;
26486;SDS011;14425;56.136;40.360;2023-08-20T10:43:26;7.60;;;6.68;;
26486;SDS011;14425;56.136;40.360;2023-08-20T10:48:34;8.00;;;7.13;;
26486;SDS011;14425;56.136;40.360;2023-08-20T10:51:11;9.02;;;8.18;;
26486;SDS011;14425;56.136;40.360;2023-08-20T10:53:39;10.50;;;9.48;;
26486;SDS011;14425;56.136;40.360;2023-08-20T10:56:09;12.57;;;9.30;;
26486;SDS011;14425;56.136;40.360;2023-08-20T10:58:43;11.57;;;9.65;;
26486;SDS011;14425;56.136;40.360;2023-08-20T11:01:18;11.57;;;9.30;;
26486;SDS011;14425;56.136;40.360;2023-08-20T11:03:46;8.13;;;7.18;;
26486;SDS011;14425;56.136;40.360;2023-08-20T11:06:14;10.80;;;8.75;;
26486;SDS011;14425;56.136;40.360;2023-08-20T11:08:39;7.95;;;7.25;;
26486;SDS011;14425;56.136;40.360;2023-08-20T11:11:06;8.45;;;7.55;;
26486;SDS011;14425;56.136;40.360;2023-08-20T11:13:33;8.07;;;6.53;;
26486;SDS011;14425;56.136;40.360;2023-08-20T11:16:01;8.52;;;6.88;;
26486;SDS011;14425;56.136;40.360;2023-08-20T11:18:27;8.70;;;6.65;;
26486;SDS011;14425;56.136;40.360;2023-08-20T11:20:56;9.27;;;7.72;;
26486;SDS011;14425;56.136;40.360;2023-08-20T11:23:22;8.60;;;7.80;;
26486;SDS011;14425;56.136;40.360;2023-08-20T11:25:48;7.82;;;6.93;;
26486;SDS011;14425;56.136;40.360;2023-08-20T11:28:13;9.48;;;6.75;;
26486;SDS011;14425;56.136;40.360;2023-08-20T11:30:39;9.27;;;7.20;;
26486;SDS011;14425;56.136;40.360;2023-08-20T11:33:05;8.25;;;6.53;;
26486;SDS011;14425;56.136;40.360;2023-08-20T11:35:31;7.05;;;6.35;;
26486;SDS011;14425;56.136;40.360;2023-08-20T11:37:58;7.70;;;7.00;;
26486;SDS011;14425;56.136;40.360;2023-08-20T11:40:24;7.05;;;5.85;;
26486;SDS011;14425;56.136;40.360;2023-08-20T11:42:49;8.70;;;7.47;;
26486;SDS011;14425;56.136;40.360;2023-08-20T11:45:15;7.28;;;6.57;;
26486;SDS011;14425;56.136;40.360;2023-08-20T11:47:41;10.15;;;7.07;;
26486;SDS011;14425;56.136;40.360;2023-08-20T11:50:09;10.05;;;6.55;;
26486;SDS011;14425;56.136;40.360;2023-08-20T11:52:36;7.18;;;6.18;;
26486;SDS011;14425;56.136;40.360;2023-08-20T11:55:04;10.27;;;7.13;;
26486;SDS011;14425;56.136;40.360;2023-08-20T11:57:31;8.45;;;6.25;;
26486;SDS011;14425;56.136;40.360;2023-08-20T12:00:01;8.23;;;6.82;;
26486;SDS011;14425;56.136;40.360;2023-08-20T12:02:36;6.90;;;6.20;;
26486;SDS011;14425;56.136;40.360;2023-08-20T12:05:01;7.38;;;6.68;;
26486;SDS011;14425;56.136;40.360;2023-08-20T12:07:29;7.55;;;6.85;;
26486;SDS011;14425;56.136;40.360;2023-08-20T12:09:54;7.80;;;6.05;;
26486;SDS011;14425;56.136;40.360;2023-08-20T12:12:20;4.85;;;4.40;;
26486;SDS011;14425;56.136;40.360;2023-08-20T12:14:49;9.80;;;7.10;;
26486;SDS011;14425;56.136;40.360;2023-08-20T12:17:18;8.07;;;7.30;;
26486;SDS011;14425;56.136;40.360;2023-08-20T12:19:44;7.63;;;6.65;;
26486;SDS011;14425;56.136;40.360;2023-08-20T12:22:10;9.13;;;6.25;;
26486;SDS011;14425;56.136;40.360;2023-08-20T12:24:36;7.90;;;5.47;;
26486;SDS011;14425;56.136;40.360;2023-08-20T12:27:02;5.40;;;4.85;;
26486;SDS011;14425;56.136;40.360;2023-08-20T12:29:28;6.85;;;6.10;;
26486;SDS011;14425;56.136;40.360;2023-08-20T12:31:54;8.75;;;6.97;;
26486;SDS011;14425;56.136;40.360;2023-08-20T12:34:20;6.07;;;5.22;;
26486;SDS011;14425;56.136;40.360;2023-08-20T12:36:51;15.43;;;5.10;;
26486;SDS011;14425;56.136;40.360;2023-08-20T12:39:16;9.10;;;5.05;;
26486;SDS011;14425;56.136;40.360;2023-08-20T12:41:42;7.78;;;4.80;;
26486;SDS011;14425;56.136;40.360;2023-08-20T12:44:08;7.28;;;4.55;;
26486;SDS011;14425;56.136;40.360;2023-08-20T12:46:33;15.35;;;4.95;;
26486;SDS011;14425;56.136;40.360;2023-08-20T12:48:59;10.45;;;4.05;;
26486;SDS011;14425;56.136;40.360;2023-08-20T12:51:25;6.40;;;3.97;;
26486;SDS011;14425;56.136;40.360;2023-08-20T12:53:51;8.98;;;3.50;;
26486;SDS011;14425;56.136;40.360;2023-08-20T12:56:17;13.07;;;3.38;;
26486;SDS011;14425;56.136;40.360;2023-08-20T12:58:43;4.97;;;2.60;;
26486;SDS011;14425;56.136;40.360;2023-08-20T13:01:09;3.75;;;2.70;;
26486;SDS011;14425;56.136;40.360;2023-08-20T13:03:35;4.50;;;3.42;;
26486;SDS011;14425;56.136;40.360;2023-08-20T13:06:00;3.78;;;3.13;;
26486;SDS011;14425;56.136;40.360;2023-08-20T13:08:26;3.97;;;2.83;;
26486;SDS011;14425;56.136;40.360;2023-08-20T13:10:53;6.28;;;2.92;;
26486;SDS011;14425;56.136;40.360;2023-08-20T13:13:20;10.00;;;3.40;;
26486;SDS011;14425;56.136;40.360;2023-08-20T13:15:48;7.57;;;3.50;;
26486;SDS011;14425;56.136;40.360;2023-08-20T13:18:15;10.05;;;3.45;;
26486;SDS011;14425;56.136;40.360;2023-08-20T13:20:41;6.22;;;3.50;;
26486;SDS011;14425;56.136;40.360;2023-08-20T13:23:08;8.65;;;4.13;;
26486;SDS011;14425;56.136;40.360;2023-08-20T13:25:34;4.90;;;3.13;;
26486;SDS011;14425;56.136;40.360;2023-08-20T13:27:59;5.15;;;3.80;;
26486;SDS011;14425;56.136;40.360;2023-08-20T13:30:25;7.07;;;4.10;;
26486;SDS011;14425;56.136;40.360;2023-08-20T13:32:51;5.20;;;4.47;;
26486;SDS011;14425;56.136;40.360;2023-08-20T13:35:16;5.63;;;4.00;;
26486;SDS011;14425;56.136;40.360;2023-08-20T13:37:43;8.50;;;5.82;;
26486;SDS011;14425;56.136;40.360;2023-08-20T13:40:09;8.75;;;6.10;;
26486;SDS011;14425;56.136;40.360;2023-08-20T13:42:35;10.63;;;5.78;;
26486;SDS011;14425;56.136;40.360;2023-08-20T13:45:01;10.98;;;5.32;;
26486;SDS011;14425;56.136;40.360;2023-08-20T13:47:30;6.10;;;4.25;;
26486;SDS011;14425;56.136;40.360;2023-08-20T13:49:55;4.50;;;3.85;;
26486;SDS011;14425;56.136;40.360;2023-08-20T13:52:21;7.63;;;5.47;;
26486;SDS011;14425;56.136;40.360;2023-08-20T13:54:46;5.70;;;4.13;;
26486;SDS011;14425;56.136;40.360;2023-08-20T13:57:12;6.68;;;5.22;;
26486;SDS011;14425;56.136;40.360;2023-08-20T13:59:37;5.90;;;4.93;;
26486;SDS011;14425;56.136;40.360;2023-08-20T14:02:04;8.43;;;5.13;;
26486;SDS011;14425;56.136;40.360;2023-08-20T14:04:29;7.28;;;5.55;;
26486;SDS011;14425;56.136;40.360;2023-08-20T14:06:55;5.75;;;4.68;;
26486;SDS011;14425;56.136;40.360;2023-08-20T14:09:20;5.88;;;5.30;;
26486;SDS011;14425;56.136;40.360;2023-08-20T14:11:46;5.55;;;4.28;;
26486;SDS011;14425;56.136;40.360;2023-08-20T14:14:12;6.15;;;5.30;;
26486;SDS011;14425;56.136;40.360;2023-08-20T14:16:38;4.38;;;3.97;;
26486;SDS011;14425;56.136;40.360;2023-08-20T14:19:04;7.47;;;5.47;;
26486;SDS011;14425;56.136;40.360;2023-08-20T14:21:33;5.55;;;3.88;;
26486;SDS011;14425;56.136;40.360;2023-08-20T14:23:58;8.68;;;5.15;;
26486;SDS011;14425;56.136;40.360;2023-08-20T14:26:24;5.85;;;5.25;;
26486;SDS011;14425;56.136;40.360;2023-08-20T14:28:49;6.70;;;6.07;;
26486;SDS011;14425;56.136;40.360;2023-08-20T14:31:15;7.13;;;5.40;;
26486;SDS011;14425;56.136;40.360;2023-08-20T14:33:41;6.20;;;5.20;;
26486;SDS011;14425;56.136;40.360;2023-08-20T14:36:06;6.22;;;4.97;;
26486;SDS011;14425;56.136;40.360;2023-08-20T14:38:33;6.72;;;4.78;;
26486;SDS011;14425;56.136;40.360;2023-08-20T14:40:59;8.82;;;4.70;;
26486;SDS011;14425;56.136;40.360;2023-08-20T14:43:26;5.53;;;5.00;;
26486;SDS011;14425;56.136;40.360;2023-08-20T14:45:52;7.18;;;5.32;;
26486;SDS011;14425;56.136;40.360;2023-08-20T14:48:18;5.72;;;5.20;;
26486;SDS011;14425;56.136;40.360;2023-08-20T14:50:43;5.95;;;5.35;;